sensor_id;sensor_type;location;lat;lon;timestamp;pressure;altitude;pressure_sealevel;temperature;humidity
25944;BME280;13742;49.306;8.636;2023-05-08T00:00:07;100765.20;;;16.26;100.00
25944;BME280;13742;49.306;8.636;2023-05-08T00:01:07;100767.47;;;16.19;100.00
25944;BME280;13742;49.306;8.636;2023-05-08T00:02:07;100763.85;;;16.10;100.00
25944;BME280;13742;49.306;8.636;2023-05-08T00:03:07;100759.99;;;16.13;100.00
25944;BME280;13742;49.306;8.636;2023-05-08T00:04:07;100761.84;;;16.14;100.00
25944;BME280;13742;49.306;8.636;2023-05-08T00:05:07;100763.18;;;16.17;100.00
25944;BME280;13742;49.306;8.636;2023-05-08T00:06:07;100764.52;;;16.17;100.00
25944;BME280;13742;49.306;8.636;2023-05-08T00:07:07;100766.42;;;16.17;100.00
25944;BME280;13742;49.306;8.636;2023-05-08T00:08:07;100764.05;;;16.15;100.00
25944;BME280;13742;49.306;8.636;2023-05-08T00:09:07;100764.89;;;16.15;100.00
25944;BME280;13742;49.306;8.636;2023-05-08T00:10:07;100761.00;;;16.15;100.00
25944;BME280;13742;49.306;8.636;2023-05-08T00:11:07;100763.56;;;16.16;100.00
25944;BME280;13742;49.306;8.636;2023-05-08T00:12:07;100762.73;;;16.16;100.00
25944;BME280;13742;49.306;8.636;2023-05-08T00:13:07;100761.97;;;16.16;100.00
25944;BME280;13742;49.306;8.636;2023-05-08T00:14:07;100761.63;;;16.16;100.00
25944;BME280;13742;49.306;8.636;2023-05-08T00:15:07;100762.18;;;16.16;100.00
25944;BME280;13742;49.306;8.636;2023-05-08T00:16:08;100758.10;;;16.13;100.00
25944;BME280;13742;49.306;8.636;2023-05-08T00:17:07;100757.83;;;16.14;100.00
25944;BME280;13742;49.306;8.636;2023-05-08T00:18:07;100761.20;;;16.13;100.00
25944;BME280;13742;49.306;8.636;2023-05-08T00:19:07;100759.81;;;16.12;100.00
25944;BME280;13742;49.306;8.636;2023-05-08T00:20:07;100759.48;;;16.12;100.00
25944;BME280;13742;49.306;8.636;2023-05-08T00:21:07;100762.43;;;16.13;100.00
25944;BME280;13742;49.306;8.636;2023-05-08T00:22:07;100762.38;;;16.13;100.00
25944;BME280;13742;49.306;8.636;2023-05-08T00:23:07;100762.95;;;16.13;100.00
25944;BME280;13742;49.306;8.636;2023-05-08T00:24:07;100762.78;;;16.13;100.00
25944;BME280;13742;49.306;8.636;2023-05-08T00:25:08;100761.61;;;16.13;100.00
25944;BME280;13742;49.306;8.636;2023-05-08T00:26:07;100762.00;;;16.14;100.00
25944;BME280;13742;49.306;8.636;2023-05-08T00:27:07;100761.61;;;16.13;100.00
25944;BME280;13742;49.306;8.636;2023-05-08T00:28:07;100763.73;;;16.15;100.00
25944;BME280;13742;49.306;8.636;2023-05-08T00:29:07;100765.05;;;16.14;100.00
25944;BME280;13742;49.306;8.636;2023-05-08T00:30:07;100766.19;;;16.10;100.00
25944;BME280;13742;49.306;8.636;2023-05-08T00:31:07;100764.64;;;16.11;100.00
25944;BME280;13742;49.306;8.636;2023-05-08T00:32:07;100768.09;;;16.12;100.00
25944;BME280;13742;49.306;8.636;2023-05-08T00:33:07;100768.48;;;16.11;100.00
25944;BME280;13742;49.306;8.636;2023-05-08T00:34:07;100769.22;;;16.08;100.00
25944;BME280;13742;49.306;8.636;2023-05-08T00:35:07;100767.17;;;16.08;100.00
25944;BME280;13742;49.306;8.636;2023-05-08T00:36:07;100769.22;;;16.06;100.00
25944;BME280;13742;49.306;8.636;2023-05-08T00:37:07;100765.74;;;16.03;100.00
25944;BME280;13742;49.306;8.636;2023-05-08T00:38:07;100766.08;;;16.03;100.00
25944;BME280;13742;49.306;8.636;2023-05-08T00:39:07;100767.09;;;15.99;100.00
25944;BME280;13742;49.306;8.636;2023-05-08T00:40:07;100765.86;;;15.89;100.00
25944;BME280;13742;49.306;8.636;2023-05-08T00:41:07;100766.13;;;15.91;100.00
25944;BME280;13742;49.306;8.636;2023-05-08T00:42:07;100767.07;;;15.96;100.00
25944;BME280;13742;49.306;8.636;2023-05-08T00:43:07;100762.24;;;15.96;100.00
25944;BME280;13742;49.306;8.636;2023-05-08T00:44:07;100763.77;;;15.99;100.00
25944;BME280;13742;49.306;8.636;2023-05-08T00:45:07;100765.88;;;15.99;100.00
25944;BME280;13742;49.306;8.636;2023-05-08T00:46:08;100764.61;;;16.00;100.00
25944;BME280;13742;49.306;8.636;2023-05-08T00:47:07;100764.99;;;16.00;100.00
25944;BME280;13742;49.306;8.636;2023-05-08T00:48:07;100767.39;;;16.00;100.00
25944;BME280;13742;49.306;8.636;2023-05-08T00:49:09;100768.45;;;16.01;100.00
25944;BME280;13742;49.306;8.636;2023-05-08T00:50:07;100769.78;;;16.01;100.00
25944;BME280;13742;49.306;8.636;2023-05-08T00:51:07;100765.99;;;16.00;100.00
25944;BME280;13742;49.306;8.636;2023-05-08T00:52:07;100766.20;;;16.00;100.00
25944;BME280;13742;49.306;8.636;2023-05-08T00:53:07;100767.66;;;15.99;100.00
25944;BME280;13742;49.306;8.636;2023-05-08T00:54:07;100767.59;;;15.97;100.00
25944;BME280;13742;49.306;8.636;2023-05-08T00:55:07;100766.42;;;15.97;100.00
25944;BME280;13742;49.306;8.636;2023-05-08T00:56:09;100768.03;;;15.97;100.00
25944;BME280;13742;49.306;8.636;2023-05-08T00:57:07;100768.21;;;15.99;100.00
25944;BME280;13742;49.306;8.636;2023-05-08T00:58:07;100771.47;;;15.99;100.00
25944;BME280;13742;49.306;8.636;2023-05-08T00:59:07;100770.58;;;15.98;100.00
25944;BME280;13742;49.306;8.636;2023-05-08T01:00:07;100774.42;;;15.98;100.00
25944;BME280;13742;49.306;8.636;2023-05-08T01:01:07;100772.73;;;15.98;100.00
25944;BME280;13742;49.306;8.636;2023-05-08T01:02:07;100772.63;;;15.96;100.00
25944;BME280;13742;49.306;8.636;2023-05-08T01:03:07;100773.80;;;15.96;100.00
25944;BME280;13742;49.306;8.636;2023-05-08T01:04:07;100769.73;;;15.95;100.00
25944;BME280;13742;49.306;8.636;2023-05-08T01:05:07;100769.73;;;15.96;100.00
25944;BME280;13742;49.306;8.636;2023-05-08T01:06:07;100773.13;;;15.99;100.00
25944;BME280;13742;49.306;8.636;2023-05-08T01:07:07;100775.70;;;15.98;100.00
25944;BME280;13742;49.306;8.636;2023-05-08T01:08:07;100773.30;;;15.99;100.00
25944;BME280;13742;49.306;8.636;2023-05-08T01:09:07;100771.03;;;15.98;100.00
25944;BME280;13742;49.306;8.636;2023-05-08T01:10:07;100772.59;;;15.98;100.00
25944;BME280;13742;49.306;8.636;2023-05-08T01:14:15;100777.14;;;15.98;100.00
25944;BME280;13742;49.306;8.636;2023-05-08T01:15:11;100776.32;;;16.00;100.00
25944;BME280;13742;49.306;8.636;2023-05-08T01:18:12;100778.53;;;16.00;100.00
25944;BME280;13742;49.306;8.636;2023-05-08T01:28:12;100780.64;;;15.98;100.00
25944;BME280;13742;49.306;8.636;2023-05-08T01:33:09;100787.47;;;15.99;100.00
25944;BME280;13742;49.306;8.636;2023-05-08T01:34:09;100786.48;;;15.99;100.00
25944;BME280;13742;49.306;8.636;2023-05-08T01:36:12;100793.62;;;16.03;100.00
25944;BME280;13742;49.306;8.636;2023-05-08T01:37:10;100785.70;;;16.00;100.00
25944;BME280;13742;49.306;8.636;2023-05-08T01:40:11;100785.94;;;16.00;100.00
25944;BME280;13742;49.306;8.636;2023-05-08T01:42:08;100788.70;;;16.00;100.00
25944;BME280;13742;49.306;8.636;2023-05-08T01:45:10;100789.83;;;16.01;100.00
25944;BME280;13742;49.306;8.636;2023-05-08T01:46:08;100789.33;;;16.01;100.00
25944;BME280;13742;49.306;8.636;2023-05-08T01:47:08;100790.09;;;16.01;100.00
25944;BME280;13742;49.306;8.636;2023-05-08T01:48:08;100794.16;;;16.01;100.00
25944;BME280;13742;49.306;8.636;2023-05-08T01:49:08;100791.83;;;16.01;100.00
25944;BME280;13742;49.306;8.636;2023-05-08T01:50:11;100794.70;;;16.01;100.00
25944;BME280;13742;49.306;8.636;2023-05-08T01:51:07;100795.45;;;16.02;100.00
25944;BME280;13742;49.306;8.636;2023-05-08T01:53:09;100796.11;;;16.02;100.00
25944;BME280;13742;49.306;8.636;2023-05-08T01:54:08;100793.88;;;16.01;100.00
25944;BME280;13742;49.306;8.636;2023-05-08T01:55:11;100795.72;;;16.02;100.00
25944;BME280;13742;49.306;8.636;2023-05-08T01:56:08;100794.33;;;16.02;100.00
25944;BME280;13742;49.306;8.636;2023-05-08T01:57:08;100790.67;;;16.02;100.00
25944;BME280;13742;49.306;8.636;2023-05-08T01:58:07;100788.83;;;16.02;100.00
25944;BME280;13742;49.306;8.636;2023-05-08T01:59:07;100790.06;;;16.03;100.00
25944;BME280;13742;49.306;8.636;2023-05-08T02:00:07;100790.19;;;16.04;100.00
25944;BME280;13742;49.306;8.636;2023-05-08T02:01:07;100785.75;;;16.04;100.00
25944;BME280;13742;49.306;8.636;2023-05-08T02:02:07;100789.31;;;16.05;100.00
25944;BME280;13742;49.306;8.636;2023-05-08T02:03:07;100790.41;;;16.04;100.00
25944;BME280;13742;49.306;8.636;2023-05-08T02:04:07;100792.97;;;16.05;100.00
25944;BME280;13742;49.306;8.636;2023-05-08T02:05:07;100790.64;;;16.05;100.00
25944;BME280;13742;49.306;8.636;2023-05-08T02:06:07;100794.47;;;16.05;100.00
25944;BME280;13742;49.306;8.636;2023-05-08T02:07:07;100797.30;;;16.05;100.00
25944;BME280;13742;49.306;8.636;2023-05-08T02:08:07;100796.64;;;16.06;100.00
25944;BME280;13742;49.306;8.636;2023-05-08T02:09:07;100798.53;;;16.06;100.00
25944;BME280;13742;49.306;8.636;2023-05-08T02:10:07;100797.25;;;16.05;100.00
25944;BME280;13742;49.306;8.636;2023-05-08T02:11:07;100800.41;;;16.05;100.00
25944;BME280;13742;49.306;8.636;2023-05-08T02:12:07;100799.50;;;16.03;100.00
25944;BME280;13742;49.306;8.636;2023-05-08T02:13:08;100799.55;;;16.03;100.00
25944;BME280;13742;49.306;8.636;2023-05-08T02:14:07;100798.44;;;16.02;100.00
25944;BME280;13742;49.306;8.636;2023-05-08T02:15:07;100800.11;;;16.02;100.00
25944;BME280;13742;49.306;8.636;2023-05-08T02:16:07;100798.20;;;16.00;100.00
25944;BME280;13742;49.306;8.636;2023-05-08T02:17:08;100796.19;;;16.00;100.00
25944;BME280;13742;49.306;8.636;2023-05-08T02:18:07;100799.09;;;16.00;100.00
25944;BME280;13742;49.306;8.636;2023-05-08T02:19:07;100797.59;;;16.00;100.00
25944;BME280;13742;49.306;8.636;2023-05-08T02:20:07;100799.37;;;16.00;100.00
25944;BME280;13742;49.306;8.636;2023-05-08T02:21:08;100800.45;;;15.99;100.00
25944;BME280;13742;49.306;8.636;2023-05-08T02:22:07;100797.51;;;15.97;100.00
25944;BME280;13742;49.306;8.636;2023-05-08T02:23:07;100796.50;;;15.97;100.00
25944;BME280;13742;49.306;8.636;2023-05-08T02:24:07;100797.66;;;15.97;100.00
25944;BME280;13742;49.306;8.636;2023-05-08T02:25:07;100797.28;;;15.96;100.00
25944;BME280;13742;49.306;8.636;2023-05-08T02:26:07;100798.40;;;15.97;100.00
25944;BME280;13742;49.306;8.636;2023-05-08T02:27:07;100796.00;;;15.97;100.00
25944;BME280;13742;49.306;8.636;2023-05-08T02:28:07;100796.89;;;15.96;100.00
25944;BME280;13742;49.306;8.636;2023-05-08T02:29:07;100796.17;;;15.96;100.00
25944;BME280;13742;49.306;8.636;2023-05-08T02:30:07;100794.78;;;15.96;100.00
25944;BME280;13742;49.306;8.636;2023-05-08T02:31:10;100795.23;;;15.97;100.00
25944;BME280;13742;49.306;8.636;2023-05-08T02:32:07;100793.34;;;15.97;100.00
25944;BME280;13742;49.306;8.636;2023-05-08T02:33:07;100794.02;;;15.97;100.00
25944;BME280;13742;49.306;8.636;2023-05-08T02:34:07;100794.34;;;15.97;100.00
25944;BME280;13742;49.306;8.636;2023-05-08T02:35:07;100793.56;;;15.98;100.00
25944;BME280;13742;49.306;8.636;2023-05-08T02:36:07;100795.39;;;15.96;100.00
25944;BME280;13742;49.306;8.636;2023-05-08T02:37:07;100795.68;;;15.97;100.00
25944;BME280;13742;49.306;8.636;2023-05-08T02:38:09;100792.83;;;15.97;100.00
25944;BME280;13742;49.306;8.636;2023-05-08T02:39:07;100794.00;;;15.96;100.00
25944;BME280;13742;49.306;8.636;2023-05-08T02:40:07;100798.05;;;15.96;100.00
25944;BME280;13742;49.306;8.636;2023-05-08T02:41:07;100799.05;;;15.96;100.00
25944;BME280;13742;49.306;8.636;2023-05-08T02:42:07;100797.95;;;15.96;100.00
25944;BME280;13742;49.306;8.636;2023-05-08T02:43:07;100800.82;;;15.95;100.00
25944;BME280;13742;49.306;8.636;2023-05-08T02:44:07;100799.59;;;15.96;100.00
25944;BME280;13742;49.306;8.636;2023-05-08T02:45:07;100798.11;;;15.95;100.00
25944;BME280;13742;49.306;8.636;2023-05-08T02:49:11;100802.36;;;15.95;100.00
25944;BME280;13742;49.306;8.636;2023-05-08T02:50:08;100802.59;;;15.94;100.00
25944;BME280;13742;49.306;8.636;2023-05-08T02:53:08;100806.38;;;15.94;100.00
25944;BME280;13742;49.306;8.636;2023-05-08T02:54:08;100806.41;;;15.93;100.00
25944;BME280;13742;49.306;8.636;2023-05-08T02:56:09;100806.91;;;15.93;100.00
25944;BME280;13742;49.306;8.636;2023-05-08T02:58:11;100808.52;;;15.92;100.00
25944;BME280;13742;49.306;8.636;2023-05-08T03:00:11;100809.01;;;15.93;100.00
25944;BME280;13742;49.306;8.636;2023-05-08T03:01:10;100807.75;;;15.93;100.00
25944;BME280;13742;49.306;8.636;2023-05-08T03:02:13;100808.06;;;15.93;100.00
25944;BME280;13742;49.306;8.636;2023-05-08T03:04:07;100806.58;;;15.93;100.00
25944;BME280;13742;49.306;8.636;2023-05-08T03:05:10;100806.41;;;15.93;100.00
25944;BME280;13742;49.306;8.636;2023-05-08T03:06:08;100808.52;;;15.93;100.00
25944;BME280;13742;49.306;8.636;2023-05-08T03:07:07;100805.56;;;15.93;100.00
25944;BME280;13742;49.306;8.636;2023-05-08T03:08:10;100805.17;;;15.93;100.00
25944;BME280;13742;49.306;8.636;2023-05-08T03:09:11;100800.30;;;15.94;100.00
25944;BME280;13742;49.306;8.636;2023-05-08T03:10:09;100800.69;;;15.93;100.00
25944;BME280;13742;49.306;8.636;2023-05-08T03:11:08;100803.30;;;15.94;100.00
25944;BME280;13742;49.306;8.636;2023-05-08T03:12:09;100804.42;;;15.94;100.00
25944;BME280;13742;49.306;8.636;2023-05-08T03:13:08;100803.42;;;15.94;100.00
25944;BME280;13742;49.306;8.636;2023-05-08T03:14:10;100803.36;;;15.93;100.00
25944;BME280;13742;49.306;8.636;2023-05-08T03:15:26;100805.04;;;15.94;100.00
25944;BME280;13742;49.306;8.636;2023-05-08T03:16:08;100804.70;;;15.94;100.00
25944;BME280;13742;49.306;8.636;2023-05-08T03:17:07;100802.63;;;15.94;100.00
25944;BME280;13742;49.306;8.636;2023-05-08T03:18:08;100804.31;;;15.94;100.00
25944;BME280;13742;49.306;8.636;2023-05-08T03:19:14;100805.14;;;15.94;100.00
25944;BME280;13742;49.306;8.636;2023-05-08T03:20:07;100802.81;;;15.94;100.00
25944;BME280;13742;49.306;8.636;2023-05-08T03:21:07;100805.05;;;15.95;100.00
25944;BME280;13742;49.306;8.636;2023-05-08T03:22:07;100803.53;;;15.95;100.00
25944;BME280;13742;49.306;8.636;2023-05-08T03:23:07;100801.17;;;15.96;100.00
25944;BME280;13742;49.306;8.636;2023-05-08T03:24:07;100802.77;;;15.96;100.00
25944;BME280;13742;49.306;8.636;2023-05-08T03:25:07;100804.44;;;15.95;100.00
25944;BME280;13742;49.306;8.636;2023-05-08T03:26:07;100804.92;;;15.94;100.00
25944;BME280;13742;49.306;8.636;2023-05-08T03:27:07;100803.65;;;15.94;100.00
25944;BME280;13742;49.306;8.636;2023-05-08T03:28:07;100803.92;;;15.94;100.00
25944;BME280;13742;49.306;8.636;2023-05-08T03:29:07;100805.44;;;15.95;100.00
25944;BME280;13742;49.306;8.636;2023-05-08T03:30:08;100803.25;;;15.93;100.00
25944;BME280;13742;49.306;8.636;2023-05-08T03:31:07;100802.97;;;15.94;100.00
25944;BME280;13742;49.306;8.636;2023-05-08T03:32:07;100802.30;;;15.94;100.00
25944;BME280;13742;49.306;8.636;2023-05-08T03:33:07;100799.20;;;15.95;100.00
25944;BME280;13742;49.306;8.636;2023-05-08T03:34:07;100800.42;;;15.93;100.00
25944;BME280;13742;49.306;8.636;2023-05-08T03:35:07;100800.23;;;15.93;100.00
25944;BME280;13742;49.306;8.636;2023-05-08T03:36:07;100798.17;;;15.93;100.00
25944;BME280;13742;49.306;8.636;2023-05-08T03:37:07;100798.97;;;15.94;100.00
25944;BME280;13742;49.306;8.636;2023-05-08T03:38:07;100797.34;;;15.93;100.00
25944;BME280;13742;49.306;8.636;2023-05-08T03:39:07;100800.52;;;15.92;100.00
25944;BME280;13742;49.306;8.636;2023-05-08T03:40:07;100796.29;;;15.91;100.00
25944;BME280;13742;49.306;8.636;2023-05-08T03:41:07;100797.66;;;15.90;100.00
25944;BME280;13742;49.306;8.636;2023-05-08T03:42:07;100799.94;;;15.89;100.00
25944;BME280;13742;49.306;8.636;2023-05-08T03:43:07;100798.61;;;15.89;100.00
25944;BME280;13742;49.306;8.636;2023-05-08T03:44:07;100798.16;;;15.89;100.00
25944;BME280;13742;49.306;8.636;2023-05-08T03:45:07;100800.20;;;15.88;100.00
25944;BME280;13742;49.306;8.636;2023-05-08T03:46:07;100803.02;;;15.88;100.00
25944;BME280;13742;49.306;8.636;2023-05-08T03:47:07;100803.42;;;15.88;100.00
25944;BME280;13742;49.306;8.636;2023-05-08T03:48:07;100802.13;;;15.87;100.00
25944;BME280;13742;49.306;8.636;2023-05-08T03:49:07;100800.80;;;15.86;100.00
25944;BME280;13742;49.306;8.636;2023-05-08T03:50:07;100800.85;;;15.87;100.00
25944;BME280;13742;49.306;8.636;2023-05-08T03:51:07;100803.86;;;15.88;100.00
25944;BME280;13742;49.306;8.636;2023-05-08T03:52:07;100804.68;;;15.87;100.00
25944;BME280;13742;49.306;8.636;2023-05-08T03:53:07;100806.84;;;15.87;100.00
25944;BME280;13742;49.306;8.636;2023-05-08T03:54:07;100803.68;;;15.87;100.00
25944;BME280;13742;49.306;8.636;2023-05-08T03:55:07;100804.78;;;15.86;100.00
25944;BME280;13742;49.306;8.636;2023-05-08T03:56:07;100803.78;;;15.86;100.00
25944;BME280;13742;49.306;8.636;2023-05-08T03:57:07;100801.61;;;15.84;100.00
25944;BME280;13742;49.306;8.636;2023-05-08T04:00:10;100807.09;;;15.84;100.00
25944;BME280;13742;49.306;8.636;2023-05-08T04:02:11;100804.94;;;15.84;100.00
25944;BME280;13742;49.306;8.636;2023-05-08T04:03:14;100804.92;;;15.83;100.00
25944;BME280;13742;49.306;8.636;2023-05-08T04:06:09;100803.75;;;15.81;100.00
25944;BME280;13742;49.306;8.636;2023-05-08T04:09:07;100815.29;;;15.82;100.00
25944;BME280;13742;49.306;8.636;2023-05-08T04:13:08;100815.49;;;15.80;100.00
25944;BME280;13742;49.306;8.636;2023-05-08T04:14:07;100814.62;;;15.81;100.00
25944;BME280;13742;49.306;8.636;2023-05-08T04:15:11;100813.72;;;15.80;100.00
25944;BME280;13742;49.306;8.636;2023-05-08T04:17:08;100814.61;;;15.79;100.00
25944;BME280;13742;49.306;8.636;2023-05-08T04:18:08;100819.17;;;15.80;100.00
25944;BME280;13742;49.306;8.636;2023-05-08T04:19:10;100820.66;;;15.80;100.00
25944;BME280;13742;49.306;8.636;2023-05-08T04:20:07;100818.33;;;15.80;100.00
25944;BME280;13742;49.306;8.636;2023-05-08T04:21:07;100820.06;;;15.81;100.00
25944;BME280;13742;49.306;8.636;2023-05-08T04:22:07;100818.49;;;15.80;100.00
25944;BME280;13742;49.306;8.636;2023-05-08T04:23:07;100818.55;;;15.81;100.00
25944;BME280;13742;49.306;8.636;2023-05-08T04:24:07;100817.95;;;15.81;100.00
25944;BME280;13742;49.306;8.636;2023-05-08T04:25:07;100819.78;;;15.81;100.00
25944;BME280;13742;49.306;8.636;2023-05-08T04:26:07;100814.45;;;15.81;100.00
25944;BME280;13742;49.306;8.636;2023-05-08T04:27:07;100815.83;;;15.80;100.00
25944;BME280;13742;49.306;8.636;2023-05-08T04:28:07;100816.62;;;15.81;100.00
25944;BME280;13742;49.306;8.636;2023-05-08T04:29:07;100818.84;;;15.80;100.00
25944;BME280;13742;49.306;8.636;2023-05-08T04:30:07;100818.33;;;15.80;100.00
25944;BME280;13742;49.306;8.636;2023-05-08T04:31:07;100821.93;;;15.80;100.00
25944;BME280;13742;49.306;8.636;2023-05-08T04:32:07;100822.71;;;15.80;100.00
25944;BME280;13742;49.306;8.636;2023-05-08T04:33:07;100827.42;;;15.80;100.00
25944;BME280;13742;49.306;8.636;2023-05-08T04:34:08;100823.86;;;15.79;100.00
25944;BME280;13742;49.306;8.636;2023-05-08T04:35:07;100824.50;;;15.80;100.00
25944;BME280;13742;49.306;8.636;2023-05-08T04:36:09;100826.59;;;15.79;100.00
25944;BME280;13742;49.306;8.636;2023-05-08T04:37:07;100827.05;;;15.80;100.00
25944;BME280;13742;49.306;8.636;2023-05-08T04:38:07;100824.59;;;15.79;100.00
25944;BME280;13742;49.306;8.636;2023-05-08T04:39:07;100824.88;;;15.78;100.00
25944;BME280;13742;49.306;8.636;2023-05-08T04:40:07;100823.19;;;15.78;100.00
25944;BME280;13742;49.306;8.636;2023-05-08T04:41:07;100823.97;;;15.77;100.00
25944;BME280;13742;49.306;8.636;2023-05-08T04:42:07;100823.81;;;15.79;100.00
25944;BME280;13742;49.306;8.636;2023-05-08T04:43:07;100824.54;;;15.78;100.00
25944;BME280;13742;49.306;8.636;2023-05-08T04:44:07;100823.52;;;15.78;100.00
25944;BME280;13742;49.306;8.636;2023-05-08T04:45:08;100825.53;;;15.79;100.00
25944;BME280;13742;49.306;8.636;2023-05-08T04:46:07;100824.13;;;15.78;100.00
25944;BME280;13742;49.306;8.636;2023-05-08T04:47:07;100824.75;;;15.78;100.00
25944;BME280;13742;49.306;8.636;2023-05-08T04:48:07;100827.39;;;15.77;100.00
25944;BME280;13742;49.306;8.636;2023-05-08T04:49:07;100828.12;;;15.77;100.00
25944;BME280;13742;49.306;8.636;2023-05-08T04:50:07;100827.70;;;15.75;100.00
25944;BME280;13742;49.306;8.636;2023-05-08T04:51:07;100827.38;;;15.75;100.00
25944;BME280;13742;49.306;8.636;2023-05-08T04:52:07;100826.47;;;15.74;100.00
25944;BME280;13742;49.306;8.636;2023-05-08T04:53:07;100833.09;;;15.75;100.00
25944;BME280;13742;49.306;8.636;2023-05-08T04:54:07;100833.47;;;15.74;100.00
25944;BME280;13742;49.306;8.636;2023-05-08T04:55:07;100834.59;;;15.74;100.00
25944;BME280;13742;49.306;8.636;2023-05-08T04:56:07;100836.36;;;15.74;100.00
25944;BME280;13742;49.306;8.636;2023-05-08T04:57:07;100837.81;;;15.75;100.00
25944;BME280;13742;49.306;8.636;2023-05-08T04:58:07;100837.73;;;15.73;100.00
25944;BME280;13742;49.306;8.636;2023-05-08T04:59:07;100839.75;;;15.74;100.00
25944;BME280;13742;49.306;8.636;2023-05-08T05:00:07;100842.58;;;15.74;100.00
25944;BME280;13742;49.306;8.636;2023-05-08T05:01:07;100845.45;;;15.73;100.00
25944;BME280;13742;49.306;8.636;2023-05-08T05:02:07;100843.66;;;15.73;100.00
25944;BME280;13742;49.306;8.636;2023-05-08T05:03:07;100844.28;;;15.73;100.00
25944;BME280;13742;49.306;8.636;2023-05-08T05:04:07;100845.89;;;15.73;100.00
25944;BME280;13742;49.306;8.636;2023-05-08T05:05:07;100846.34;;;15.73;100.00
25944;BME280;13742;49.306;8.636;2023-05-08T05:06:07;100847.91;;;15.74;100.00
25944;BME280;13742;49.306;8.636;2023-05-08T05:07:07;100849.13;;;15.74;100.00
25944;BME280;13742;49.306;8.636;2023-05-08T05:08:07;100848.39;;;15.73;100.00
25944;BME280;13742;49.306;8.636;2023-05-08T05:09:07;100850.01;;;15.74;100.00
25944;BME280;13742;49.306;8.636;2023-05-08T05:10:07;100850.80;;;15.74;100.00
25944;BME280;13742;49.306;8.636;2023-05-08T05:11:07;100850.63;;;15.74;100.00
25944;BME280;13742;49.306;8.636;2023-05-08T05:12:07;100853.84;;;15.74;100.00
25944;BME280;13742;49.306;8.636;2023-05-08T05:13:07;100852.67;;;15.74;100.00
25944;BME280;13742;49.306;8.636;2023-05-08T05:14:07;100851.67;;;15.73;100.00
25944;BME280;13742;49.306;8.636;2023-05-08T05:15:07;100852.12;;;15.74;100.00
25944;BME280;13742;49.306;8.636;2023-05-08T05:16:07;100851.67;;;15.74;100.00
25944;BME280;13742;49.306;8.636;2023-05-08T05:17:07;100855.08;;;15.75;100.00
25944;BME280;13742;49.306;8.636;2023-05-08T05:18:07;100855.44;;;15.73;100.00
25944;BME280;13742;49.306;8.636;2023-05-08T05:19:07;100857.28;;;15.74;100.00
25944;BME280;13742;49.306;8.636;2023-05-08T05:20:08;100862.28;;;15.74;100.00
25944;BME280;13742;49.306;8.636;2023-05-08T05:21:07;100857.50;;;15.73;100.00
25944;BME280;13742;49.306;8.636;2023-05-08T05:22:07;100862.72;;;15.73;100.00
25944;BME280;13742;49.306;8.636;2023-05-08T05:23:07;100862.55;;;15.73;100.00
25944;BME280;13742;49.306;8.636;2023-05-08T05:24:07;100861.42;;;15.72;100.00
25944;BME280;13742;49.306;8.636;2023-05-08T05:25:07;100865.88;;;15.73;100.00
25944;BME280;13742;49.306;8.636;2023-05-08T05:26:07;100867.23;;;15.72;100.00
25944;BME280;13742;49.306;8.636;2023-05-08T05:27:07;100865.13;;;15.70;100.00
25944;BME280;13742;49.306;8.636;2023-05-08T05:28:07;100868.45;;;15.70;100.00
25944;BME280;13742;49.306;8.636;2023-05-08T05:29:07;100869.05;;;15.69;100.00
25944;BME280;13742;49.306;8.636;2023-05-08T05:30:07;100867.33;;;15.68;100.00
25944;BME280;13742;49.306;8.636;2023-05-08T05:31:07;100868.83;;;15.69;100.00
25944;BME280;13742;49.306;8.636;2023-05-08T05:32:09;100868.77;;;15.68;100.00
25944;BME280;13742;49.306;8.636;2023-05-08T05:33:07;100871.09;;;15.68;100.00
25944;BME280;13742;49.306;8.636;2023-05-08T05:34:07;100870.98;;;15.69;100.00
25944;BME280;13742;49.306;8.636;2023-05-08T05:35:08;100873.05;;;15.69;100.00
25944;BME280;13742;49.306;8.636;2023-05-08T05:36:07;100870.60;;;15.70;100.00
25944;BME280;13742;49.306;8.636;2023-05-08T05:37:07;100871.44;;;15.70;100.00
25944;BME280;13742;49.306;8.636;2023-05-08T05:38:07;100874.02;;;15.71;100.00
25944;BME280;13742;49.306;8.636;2023-05-08T05:39:07;100871.35;;;15.71;100.00
25944;BME280;13742;49.306;8.636;2023-05-08T05:40:07;100873.30;;;15.71;100.00
25944;BME280;13742;49.306;8.636;2023-05-08T05:41:07;100874.69;;;15.71;100.00
25944;BME280;13742;49.306;8.636;2023-05-08T05:42:07;100875.23;;;15.72;100.00
25944;BME280;13742;49.306;8.636;2023-05-08T05:43:07;100871.85;;;15.71;100.00
25944;BME280;13742;49.306;8.636;2023-05-08T05:44:07;100873.41;;;15.71;100.00
25944;BME280;13742;49.306;8.636;2023-05-08T05:45:07;100876.23;;;15.71;100.00
25944;BME280;13742;49.306;8.636;2023-05-08T05:46:07;100873.56;;;15.70;100.00
25944;BME280;13742;49.306;8.636;2023-05-08T05:47:09;100875.08;;;15.71;100.00
25944;BME280;13742;49.306;8.636;2023-05-08T05:48:07;100876.91;;;15.71;100.00
25944;BME280;13742;49.306;8.636;2023-05-08T05:49:07;100877.22;;;15.70;100.00
25944;BME280;13742;49.306;8.636;2023-05-08T05:50:07;100876.78;;;15.71;100.00
25944;BME280;13742;49.306;8.636;2023-05-08T05:51:07;100880.67;;;15.71;100.00
25944;BME280;13742;49.306;8.636;2023-05-08T05:52:07;100880.24;;;15.72;100.00
25944;BME280;13742;49.306;8.636;2023-05-08T05:53:07;100874.36;;;15.72;100.00
25944;BME280;13742;49.306;8.636;2023-05-08T05:54:07;100875.64;;;15.73;100.00